createdAt,value
2022-10-23T00:01:30.965Z,11.65
2022-10-23T00:04:03.918Z,9.63
2022-10-23T00:06:32.652Z,16.38
2022-10-23T00:08:59.865Z,12.50
2022-10-23T00:11:29.747Z,10.48
2022-10-23T00:14:00.295Z,9.10
2022-10-23T00:16:28.360Z,15.35
2022-10-23T00:18:55.717Z,11.27
2022-10-23T00:21:23.751Z,11.55
2022-10-23T00:23:50.813Z,10.52
2022-10-23T00:26:17.848Z,10.40
2022-10-23T00:28:46.761Z,9.10
2022-10-23T00:31:13.730Z,11.40
2022-10-23T00:33:41.621Z,7.78
2022-10-23T00:36:10.143Z,9.45
2022-10-23T00:38:37.721Z,9.43
2022-10-23T00:41:05.851Z,7.85
2022-10-23T00:43:34.186Z,12.23
2022-10-23T00:46:00.958Z,10.98
2022-10-23T00:48:28.707Z,9.55
2022-10-23T00:50:56.536Z,12.60
2022-10-23T00:53:24.855Z,8.23
2022-10-23T00:55:54.768Z,9.18
2022-10-23T00:58:21.603Z,9.70
2022-10-23T01:00:53.897Z,11.63
2022-10-23T01:03:23.394Z,9.27
2022-10-23T01:06:05.501Z,11.57
2022-10-23T01:08:40.041Z,13.13
2022-10-23T01:11:11.992Z,11.35
2022-10-23T01:14:05.592Z,13.52
2022-10-23T01:16:47.280Z,14.77
2022-10-23T01:19:42.679Z,14.68
2022-10-23T01:22:27.809Z,14.40
2022-10-23T01:25:16.700Z,14.85
2022-10-23T01:27:49.215Z,16.58
2022-10-23T01:30:17.577Z,13.13
2022-10-23T01:32:48.907Z,15.88
2022-10-23T01:35:22.656Z,9.30
2022-10-23T01:38:08.016Z,9.60
2022-10-23T01:40:58.920Z,11.68
2022-10-23T01:43:30.338Z,16.45
2022-10-23T01:46:01.773Z,14.65
2022-10-23T01:48:31.457Z,16.88
2022-10-23T01:51:01.597Z,13.00
2022-10-23T01:53:31.823Z,12.35
2022-10-23T01:56:01.309Z,15.18
2022-10-23T01:58:30.107Z,13.95
2022-10-23T02:01:01.744Z,15.60
2022-10-23T02:05:57.869Z,16.75
2022-10-23T02:08:25.690Z,16.20
2022-10-23T02:11:06.920Z,13.30
2022-10-23T02:13:39.561Z,16.13
2022-10-23T02:16:29.519Z,11.82
2022-10-23T02:19:10.363Z,13.65
2022-10-23T02:22:01.194Z,13.05
2022-10-23T02:24:35.407Z,13.35
2022-10-23T02:27:13.017Z,18.73
2022-10-23T02:29:52.170Z,18.05
2022-10-23T02:32:23.556Z,11.77
2022-10-23T02:34:50.420Z,14.75
2022-10-23T02:37:17.111Z,17.17
2022-10-23T02:39:44.239Z,27.63
2022-10-23T02:42:26.031Z,19.55
2022-10-23T02:45:09.143Z,14.13
2022-10-23T02:47:59.150Z,13.93
2022-10-23T02:50:35.908Z,12.55
2022-10-23T02:53:30.472Z,15.32
2022-10-23T02:56:21.198Z,15.82
2022-10-23T02:59:31.074Z,12.82
2022-10-23T03:02:06.802Z,15.85
2022-10-23T03:04:40.060Z,15.80
2022-10-23T03:07:12.963Z,14.93
2022-10-23T03:09:39.939Z,17.83
2022-10-23T03:12:07.167Z,16.52
2022-10-23T03:14:35.485Z,14.35
2022-10-23T03:17:05.772Z,19.10
2022-10-23T03:19:32.444Z,14.38
2022-10-23T03:21:59.242Z,13.32
2022-10-23T03:24:25.989Z,10.98
2022-10-23T03:26:52.737Z,15.20
2022-10-23T03:29:27.609Z,20.73
2022-10-23T03:31:55.679Z,13.15
2022-10-23T03:34:22.628Z,15.98
2022-10-23T03:36:49.312Z,13.63
2022-10-23T03:39:18.811Z,11.45
2022-10-23T03:41:45.637Z,13.85
2022-10-23T03:44:14.804Z,13.40
2022-10-23T03:46:44.496Z,9.73
2022-10-23T03:49:11.135Z,16.85
2022-10-23T03:51:41.494Z,14.18
2022-10-23T03:54:08.731Z,12.63
2022-10-23T03:56:37.412Z,17.40
2022-10-23T03:59:04.627Z,13.85
2022-10-23T04:01:31.384Z,13.43
2022-10-23T04:03:58.153Z,15.65
2022-10-23T04:06:25.945Z,14.38
2022-10-23T04:08:56.116Z,16.25
2022-10-23T04:11:22.868Z,18.35
2022-10-23T04:13:49.749Z,12.10
2022-10-23T04:16:17.107Z,17.33
2022-10-23T04:18:45.291Z,14.82
2022-10-23T04:21:12.101Z,15.57
2022-10-23T04:23:39.034Z,9.25
2022-10-23T04:26:11.293Z,13.98
2022-10-23T04:28:38.259Z,14.55
2022-10-23T04:31:05.078Z,13.93
2022-10-23T04:33:31.715Z,18.75
2022-10-23T04:35:58.391Z,14.90
2022-10-23T04:38:26.063Z,12.80
2022-10-23T04:40:52.784Z,11.65
2022-10-23T04:43:21.753Z,13.05
2022-10-23T04:45:49.689Z,14.82
2022-10-23T04:48:16.436Z,15.73
2022-10-23T04:51:04.720Z,10.23
2022-10-23T04:54:09.814Z,11.70
2022-10-23T04:57:06.301Z,14.13
2022-10-23T04:59:51.204Z,11.73
2022-10-23T05:02:18.188Z,12.57
2022-10-23T05:04:47.852Z,11.02
2022-10-23T05:07:38.423Z,11.35
2022-10-23T05:10:21.875Z,17.30
2022-10-23T05:12:55.885Z,13.32
2022-10-23T05:15:22.981Z,16.73
2022-10-23T05:17:52.706Z,11.85
2022-10-23T05:20:23.398Z,14.07
2022-10-23T05:22:53.023Z,11.40
2022-10-23T05:25:23.874Z,10.77
2022-10-23T05:27:58.451Z,22.13
2022-10-23T05:30:26.111Z,19.58
2022-10-23T05:32:54.162Z,12.75
2022-10-23T05:35:24.211Z,11.82
2022-10-23T05:37:55.124Z,12.25
2022-10-23T05:40:24.981Z,18.30
2022-10-23T05:42:58.364Z,19.58
2022-10-23T05:45:45.648Z,14.80
2022-10-23T05:48:33.609Z,12.98
2022-10-23T05:51:09.334Z,10.07
2022-10-23T05:53:56.042Z,11.57
2022-10-23T05:56:46.653Z,10.60
2022-10-23T05:59:23.120Z,11.05
2022-10-23T06:01:53.609Z,15.90
2022-10-23T06:04:33.615Z,19.05
2022-10-23T06:07:25.420Z,18.23
2022-10-23T06:09:54.354Z,14.48
2022-10-23T06:12:22.367Z,14.52
2022-10-23T06:14:51.014Z,12.73
2022-10-23T06:17:18.754Z,15.77
2022-10-23T06:19:46.754Z,12.25
2022-10-23T06:22:16.933Z,8.85
2022-10-23T06:24:51.052Z,13.10
2022-10-23T06:27:26.691Z,13.30
2022-10-23T06:29:55.079Z,13.75
2022-10-23T06:32:22.288Z,14.85
2022-10-23T06:35:02.116Z,9.60
2022-10-23T06:37:28.960Z,13.93
2022-10-23T06:40:06.117Z,14.15
2022-10-23T06:42:47.930Z,9.32
2022-10-23T06:45:40.921Z,10.60
2022-10-23T06:48:13.351Z,10.23
2022-10-23T06:50:43.092Z,8.55
2022-10-23T06:53:17.904Z,12.38
2022-10-23T06:55:54.573Z,14.63
2022-10-23T06:58:22.855Z,11.88
2022-10-23T07:01:04.822Z,8.63
2022-10-23T07:06:04.065Z,13.77
2022-10-23T07:11:05.327Z,12.40
2022-10-23T07:13:35.293Z,16.35
2022-10-23T07:16:18.258Z,11.05
2022-10-23T07:18:46.154Z,11.07
2022-10-23T07:21:21.895Z,12.60
2022-10-23T07:23:51.683Z,11.48
2022-10-23T07:26:19.038Z,9.45
2022-10-23T07:28:48.295Z,12.52
2022-10-23T07:31:22.074Z,13.10
2022-10-23T07:34:10.729Z,10.13
2022-10-23T07:36:37.636Z,14.40
2022-10-23T07:39:05.484Z,11.43
2022-10-23T07:41:35.871Z,11.77
2022-10-23T07:44:02.766Z,13.90
2022-10-23T07:46:29.480Z,10.52
2022-10-23T07:48:56.605Z,14.88
2022-10-23T07:51:23.677Z,14.10
2022-10-23T07:53:56.203Z,17.92
2022-10-23T07:56:51.971Z,17.33
2022-10-23T07:59:39.154Z,13.88
2022-10-23T08:02:12.610Z,15.50
2022-10-23T08:04:40.173Z,11.40
2022-10-23T08:07:29.786Z,13.32
2022-10-23T08:09:57.907Z,14.20
2022-10-23T08:12:25.840Z,14.50
2022-10-23T08:14:54.291Z,9.70
2022-10-23T08:17:25.058Z,8.07
2022-10-23T08:20:04.238Z,7.55
2022-10-23T08:22:38.958Z,10.85
2022-10-23T08:25:06.033Z,11.23
2022-10-23T08:27:32.893Z,9.07
2022-10-23T08:29:59.687Z,9.02
2022-10-23T08:32:30.648Z,9.98
2022-10-23T08:35:02.284Z,11.57
2022-10-23T08:37:31.850Z,12.43
2022-10-23T08:39:58.591Z,13.02
2022-10-23T08:42:59.854Z,8.68
2022-10-23T08:45:47.562Z,6.72
2022-10-23T08:49:01.463Z,12.23
2022-10-23T08:51:49.140Z,17.38
2022-10-23T08:54:44.979Z,11.85
2022-10-23T08:57:16.000Z,11.35
2022-10-23T08:59:52.920Z,8.00
2022-10-23T09:02:46.457Z,12.30
2022-10-23T09:05:18.843Z,11.55
2022-10-23T09:08:01.018Z,11.73
2022-10-23T09:10:59.908Z,8.20
2022-10-23T09:13:41.484Z,8.65
2022-10-23T09:16:47.416Z,13.48
2022-10-23T09:19:19.868Z,10.15
2022-10-23T09:21:51.589Z,7.70
2022-10-23T09:24:23.205Z,9.98
2022-10-23T09:26:52.129Z,12.32
2022-10-23T09:29:35.707Z,6.22
2022-10-23T09:32:06.237Z,7.15
2022-10-23T09:34:34.813Z,9.57
2022-10-23T09:37:17.097Z,9.88
2022-10-23T09:39:43.956Z,10.15
2022-10-23T09:42:22.847Z,8.55
2022-10-23T09:44:51.849Z,8.98
2022-10-23T09:47:22.769Z,8.20
2022-10-23T09:49:58.829Z,7.72
2022-10-23T09:52:34.950Z,8.40
2022-10-23T09:55:15.670Z,9.48
2022-10-23T09:57:44.804Z,7.30
2022-10-23T10:00:14.511Z,7.10
2022-10-23T10:02:43.970Z,10.60
2022-10-23T10:05:44.196Z,9.95
2022-10-23T10:08:48.843Z,6.93
2022-10-23T10:11:22.015Z,5.63
2022-10-23T10:14:26.598Z,9.55
2022-10-23T10:17:20.390Z,8.98
2022-10-23T10:20:23.799Z,7.25
2022-10-23T10:22:54.210Z,7.38
2022-10-23T10:25:40.116Z,7.05
2022-10-23T10:28:30.561Z,6.88
2022-10-23T10:31:23.722Z,10.70
2022-10-23T10:34:13.676Z,6.07
2022-10-23T10:36:54.967Z,9.35
2022-10-23T10:39:28.518Z,10.20
2022-10-23T10:42:03.993Z,8.30
2022-10-23T10:45:01.916Z,8.07
2022-10-23T10:47:39.728Z,6.72
2022-10-23T10:50:51.393Z,6.10
2022-10-23T10:53:40.496Z,7.57
2022-10-23T10:56:14.587Z,8.25
2022-10-23T10:58:55.337Z,9.65
2022-10-23T11:01:51.503Z,13.40
2022-10-23T11:04:32.790Z,5.78
2022-10-23T11:07:05.675Z,9.45
2022-10-23T11:09:32.359Z,11.70
2022-10-23T11:11:59.206Z,13.23
2022-10-23T11:14:29.155Z,9.90
2022-10-23T11:17:24.479Z,11.30
2022-10-23T11:20:15.419Z,10.15
2022-10-23T11:22:50.221Z,6.97
2022-10-23T11:25:29.085Z,7.30
2022-10-23T11:28:04.410Z,10.82
2022-10-23T11:31:04.736Z,14.30
2022-10-23T11:33:55.420Z,4.57
2022-10-23T11:36:40.883Z,5.53
2022-10-23T11:39:18.705Z,7.95
2022-10-23T11:42:10.387Z,5.88
2022-10-23T11:44:46.412Z,10.65
2022-10-23T11:47:40.142Z,11.48
2022-10-23T11:50:07.314Z,6.93
2022-10-23T11:52:45.745Z,9.32
2022-10-23T11:55:26.525Z,10.20
2022-10-23T11:58:16.082Z,6.30
2022-10-23T12:00:58.772Z,11.45
2022-10-23T12:03:30.463Z,10.68
2022-10-23T12:06:01.509Z,11.50
2022-10-23T12:08:31.894Z,11.55
2022-10-23T12:10:58.660Z,12.07
2022-10-23T12:13:37.618Z,14.15
2022-10-23T12:16:07.612Z,6.97
2022-10-23T12:18:49.244Z,8.98
2022-10-23T12:21:28.233Z,14.50
2022-10-23T12:24:16.100Z,12.23
2022-10-23T12:27:04.588Z,11.35
2022-10-23T12:29:48.773Z,8.75
2022-10-23T12:32:43.744Z,11.80
2022-10-23T12:35:53.611Z,5.20
2022-10-23T12:38:29.359Z,4.15
2022-10-23T12:41:13.355Z,8.95
2022-10-23T12:43:42.626Z,7.85
2022-10-23T12:46:55.486Z,8.00
2022-10-23T12:49:24.607Z,8.63
2022-10-23T12:51:57.089Z,8.80
2022-10-23T12:54:24.556Z,5.80
2022-10-23T12:56:53.025Z,8.85
2022-10-23T12:59:36.676Z,12.48
2022-10-23T13:02:22.442Z,7.10
2022-10-23T13:04:52.515Z,6.95
2022-10-23T13:07:21.411Z,13.15
2022-10-23T13:09:49.764Z,7.45
2022-10-23T13:12:28.063Z,11.57
2022-10-23T13:15:17.540Z,7.63
2022-10-23T13:17:47.490Z,11.90
2022-10-23T13:20:17.458Z,7.38
2022-10-23T13:22:46.539Z,6.45
2022-10-23T13:25:28.377Z,8.48
2022-10-23T13:28:31.550Z,9.43
2022-10-23T13:31:12.820Z,7.28
2022-10-23T13:33:47.552Z,6.15
2022-10-23T13:36:17.485Z,7.55
2022-10-23T13:38:46.344Z,6.00
2022-10-23T13:41:18.786Z,10.90
2022-10-23T13:43:47.543Z,9.48
2022-10-23T13:46:15.897Z,8.43
2022-10-23T13:48:42.906Z,7.55
2022-10-23T13:51:15.294Z,17.17
2022-10-23T13:53:42.367Z,14.27
2022-10-23T13:56:12.851Z,11.13
2022-10-23T13:58:40.177Z,5.47
2022-10-23T14:01:12.681Z,7.78
2022-10-23T14:03:39.437Z,6.32
2022-10-23T14:06:06.408Z,7.63
2022-10-23T14:08:33.231Z,8.82
2022-10-23T14:10:59.936Z,4.50
2022-10-23T14:13:26.801Z,4.93
2022-10-23T14:15:54.763Z,4.80
2022-10-23T14:18:22.128Z,7.45
2022-10-23T14:20:49.146Z,5.05
2022-10-23T14:23:16.156Z,6.57
2022-10-23T14:25:43.003Z,7.05
2022-10-23T14:28:09.819Z,8.93
2022-10-23T14:30:47.075Z,8.60
2022-10-23T14:33:15.078Z,6.72
2022-10-23T14:35:43.402Z,5.70
2022-10-23T14:38:11.055Z,5.05
2022-10-23T14:40:38.803Z,7.70
2022-10-23T14:43:06.507Z,5.65
2022-10-23T14:45:33.400Z,4.53
2022-10-23T14:48:01.637Z,8.48
2022-10-23T14:50:28.592Z,7.40
2022-10-23T14:52:55.539Z,7.10
2022-10-23T14:55:22.459Z,6.30
2022-10-23T14:57:54.146Z,6.63
2022-10-23T15:00:20.903Z,5.60
2022-10-23T15:02:47.534Z,4.88
2022-10-23T15:05:14.759Z,5.60
2022-10-23T15:07:41.675Z,5.63
2022-10-23T15:10:08.907Z,5.75
2022-10-23T15:12:36.332Z,4.97
2022-10-23T15:15:03.976Z,12.73
2022-10-23T15:17:31.964Z,6.28
2022-10-23T15:19:58.816Z,4.95
2022-10-23T15:22:25.642Z,10.40
2022-10-23T15:24:52.469Z,8.90
2022-10-23T15:27:19.415Z,8.77
2022-10-23T15:29:46.360Z,6.53
2022-10-23T15:32:13.268Z,10.43
2022-10-23T15:34:42.833Z,9.85
2022-10-23T15:37:11.011Z,6.05
2022-10-23T15:39:37.656Z,7.40
2022-10-23T15:42:05.710Z,7.90
2022-10-23T15:44:33.650Z,4.80
2022-10-23T15:47:00.395Z,8.50
2022-10-23T15:49:31.708Z,7.40
2022-10-23T15:51:58.466Z,6.17
2022-10-23T15:54:28.092Z,5.25
2022-10-23T15:59:26.670Z,6.85
2022-10-23T16:01:53.786Z,6.88
2022-10-23T16:04:20.970Z,6.70
2022-10-23T16:06:48.130Z,6.68
2022-10-23T16:09:15.740Z,10.63
2022-10-23T16:11:43.636Z,9.93
2022-10-23T16:14:15.866Z,6.03
2022-10-23T16:19:11.267Z,9.57
2022-10-23T16:21:38.501Z,7.47
2022-10-23T16:24:07.437Z,4.72
2022-10-23T16:26:35.056Z,4.43
2022-10-23T16:29:05.512Z,6.03
2022-10-23T16:31:32.415Z,8.57
2022-10-23T16:34:01.000Z,5.28
2022-10-23T16:36:28.242Z,6.38
2022-10-23T16:39:09.188Z,10.82
2022-10-23T16:41:54.706Z,5.60
2022-10-23T16:44:24.602Z,8.45
2022-10-23T16:46:59.045Z,9.48
2022-10-23T16:49:30.874Z,3.97
2022-10-23T16:51:58.011Z,8.30
2022-10-23T16:54:24.805Z,11.60
2022-10-23T16:56:51.653Z,4.68
2022-10-23T16:59:18.452Z,4.90
2022-10-23T17:01:45.383Z,5.47
2022-10-23T17:04:12.215Z,9.27
2022-10-23T17:06:39.092Z,7.00
2022-10-23T17:09:05.996Z,6.95
2022-10-23T17:11:38.674Z,7.53
2022-10-23T17:14:13.553Z,12.65
2022-10-23T17:16:46.293Z,9.68
2022-10-23T17:19:33.131Z,22.27
2022-10-23T17:22:08.021Z,8.57
2022-10-23T17:24:34.875Z,8.20
2022-10-23T17:27:01.993Z,7.63
2022-10-23T17:29:28.876Z,8.52
2022-10-23T17:31:55.745Z,10.50
2022-10-23T17:34:23.356Z,5.63
2022-10-23T17:36:53.709Z,9.57
2022-10-23T17:39:23.618Z,5.13
2022-10-23T17:41:50.353Z,6.68
2022-10-23T17:44:17.292Z,6.07
2022-10-23T17:46:44.129Z,9.23
2022-10-23T17:49:12.521Z,8.35
2022-10-23T17:51:39.551Z,7.05
2022-10-23T17:54:10.687Z,9.98
2022-10-23T17:56:38.414Z,8.05
2022-10-23T17:59:08.819Z,10.02
2022-10-23T18:01:35.888Z,11.18
2022-10-23T18:04:05.550Z,11.75
2022-10-23T18:06:35.476Z,8.73
2022-10-23T18:09:04.455Z,10.20
2022-10-23T18:11:35.316Z,12.50
2022-10-23T18:14:03.764Z,10.43
2022-10-23T18:16:30.798Z,7.30
2022-10-23T18:19:00.396Z,10.85
2022-10-23T18:21:28.087Z,8.85
2022-10-23T18:23:55.195Z,6.63
2022-10-23T18:26:25.529Z,7.15
2022-10-23T18:28:56.854Z,8.40
2022-10-23T18:31:25.304Z,9.53
2022-10-23T18:34:01.520Z,9.10
2022-10-23T18:36:32.525Z,10.90
2022-10-23T18:38:59.671Z,7.00
2022-10-23T18:41:27.104Z,7.18
2022-10-23T18:43:54.848Z,11.00
2022-10-23T18:46:22.000Z,8.90
2022-10-23T18:48:50.950Z,11.80
2022-10-23T18:51:24.416Z,11.73
2022-10-23T18:53:51.613Z,7.88
2022-10-23T18:56:22.947Z,5.38
2022-10-23T18:58:51.586Z,8.73
2022-10-23T19:01:19.810Z,11.63
2022-10-23T19:03:47.323Z,7.70
2022-10-23T19:06:14.677Z,9.32
2022-10-23T19:08:43.009Z,11.80
2022-10-23T19:11:11.052Z,13.70
2022-10-23T19:13:39.241Z,9.15
2022-10-23T19:16:16.198Z,5.78
2022-10-23T19:18:46.916Z,6.15
2022-10-23T19:21:14.513Z,12.35
2022-10-23T19:23:42.963Z,10.25
2022-10-23T19:26:13.643Z,6.20
2022-10-23T19:28:42.882Z,12.85
2022-10-23T19:31:10.538Z,9.90
2022-10-23T19:33:38.861Z,6.35
2022-10-23T19:36:11.239Z,6.75
2022-10-23T19:38:41.590Z,7.10
2022-10-23T19:41:08.504Z,6.10
2022-10-23T19:43:35.234Z,9.45
2022-10-23T19:46:05.087Z,7.78
2022-10-23T19:48:34.866Z,9.35
2022-10-23T19:51:01.611Z,9.27
2022-10-23T19:53:28.303Z,13.73
2022-10-23T19:56:02.992Z,9.18
2022-10-23T19:58:29.870Z,17.25
2022-10-23T20:00:56.971Z,9.02
2022-10-23T20:03:23.676Z,17.55
2022-10-23T20:05:50.567Z,9.93
2022-10-23T20:08:18.011Z,12.60
2022-10-23T20:10:46.632Z,6.03
2022-10-23T20:13:19.852Z,6.22
2022-10-23T20:15:47.523Z,7.65
2022-10-23T20:18:14.183Z,7.57
2022-10-23T20:20:42.397Z,6.65
2022-10-23T20:23:09.375Z,7.15
2022-10-23T20:25:36.462Z,4.70
2022-10-23T20:28:03.584Z,4.32
2022-10-23T20:30:30.740Z,5.53
2022-10-23T20:32:57.443Z,4.97
2022-10-23T20:35:24.414Z,4.28
2022-10-23T20:37:54.325Z,3.88
2022-10-23T20:40:21.241Z,2.05
2022-10-23T20:42:48.072Z,10.15
2022-10-23T20:45:14.768Z,2.88
2022-10-23T20:47:41.698Z,2.80
2022-10-23T20:50:08.999Z,3.97
2022-10-23T20:52:35.903Z,3.42
2022-10-23T20:55:02.768Z,6.57
2022-10-23T20:57:29.646Z,3.08
2022-10-23T20:59:56.323Z,5.80
2022-10-23T21:02:23.156Z,7.43
2022-10-23T21:04:50.603Z,4.05
2022-10-23T21:07:18.235Z,2.63
2022-10-23T21:09:45.170Z,3.03
2022-10-23T21:12:12.005Z,2.33
2022-10-23T21:14:38.909Z,2.75
2022-10-23T21:17:06.212Z,4.13
2022-10-23T21:19:33.086Z,2.85
2022-10-23T21:22:00.100Z,3.25
2022-10-23T21:24:26.931Z,5.93
2022-10-23T21:26:53.547Z,5.25
2022-10-23T21:29:20.969Z,4.20
2022-10-23T21:31:56.301Z,9.63
2022-10-23T21:34:24.613Z,2.17
2022-10-23T21:39:38.347Z,2.42
2022-10-23T21:42:05.310Z,4.75
2022-10-23T21:44:31.995Z,3.35
2022-10-23T21:46:58.676Z,3.70
2022-10-23T21:49:25.344Z,6.70
2022-10-23T21:51:52.107Z,1.92
2022-10-23T21:54:18.962Z,5.18
2022-10-23T21:56:48.399Z,3.80
2022-10-23T21:59:18.174Z,4.32
2022-10-23T22:01:46.806Z,2.33
2022-10-23T22:04:15.206Z,3.38
2022-10-23T22:06:43.097Z,7.97
2022-10-23T22:09:12.705Z,6.60
2022-10-23T22:11:39.577Z,5.18
2022-10-23T22:14:06.483Z,4.13
2022-10-23T22:16:33.352Z,3.58
2022-10-23T22:19:00.103Z,1.15
2022-10-23T22:21:28.978Z,5.03
2022-10-23T22:23:57.885Z,2.78
2022-10-23T22:26:31.810Z,6.00
2022-10-23T22:29:01.684Z,3.92
2022-10-23T22:31:31.758Z,6.80
2022-10-23T22:33:59.897Z,4.28
2022-10-23T22:36:27.070Z,10.70
2022-10-23T22:38:55.258Z,10.60
2022-10-23T22:41:22.760Z,4.97
2022-10-23T22:43:54.644Z,5.55
2022-10-23T22:46:21.558Z,5.22
2022-10-23T22:48:48.896Z,3.10
2022-10-23T22:51:18.303Z,4.90
2022-10-23T22:53:45.755Z,5.15
2022-10-23T22:56:18.539Z,6.25
2022-10-23T22:58:45.925Z,3.17
2022-10-23T23:01:25.302Z,3.38
2022-10-23T23:03:52.889Z,9.27
2022-10-23T23:06:21.361Z,9.88
2022-10-23T23:08:48.843Z,3.03
2022-10-23T23:11:17.435Z,3.47
2022-10-23T23:13:44.819Z,2.95
2022-10-23T23:16:17.939Z,4.25
2022-10-23T23:18:47.962Z,3.65
2022-10-23T23:21:15.175Z,3.42
2022-10-23T23:23:41.914Z,10.93
2022-10-23T23:26:09.379Z,6.70
2022-10-23T23:28:36.460Z,5.60
2022-10-23T23:31:06.283Z,7.50
2022-10-23T23:33:33.175Z,8.10
2022-10-23T23:36:00.106Z,6.88
2022-10-23T23:38:27.187Z,6.63
2022-10-23T23:40:54.138Z,3.42
2022-10-23T23:43:20.815Z,6.13
2022-10-23T23:45:47.477Z,6.35
2022-10-23T23:48:14.295Z,8.25
2022-10-23T23:50:41.160Z,6.53
2022-10-23T23:53:08.075Z,6.80
2022-10-23T23:55:35.532Z,4.10
2022-10-23T23:58:02.536Z,9.27
